KRZN

Burnett County Airport

Siren, Wisconsin, USA
METAR KRZN 210435Z AUTO 00000KT 5SM BR BKN120 M03/M03 A2994 RMK AO2 T10271031
Observed Flight Rules
Jan-21 @ 04:35 UTC (16 minutes ago) Marginal Visual Flight Rules
Wind Visibility Clouds Conditions
Calm 5 miles
  • Broken at 12,000' AGL
  • Mist
Temperatures Readings
Current -3°C / 27°F
Dewpoint -3°C / 27°F
Humidity 100%
Altimeter 29.94" Hg
Pressure 1014 hPa
Elevation 301
METAR KRZN 210435Z AUTO 00000KT 5SM BR BKN120 M03/M03 A2994 RMK AO2 T10271031
Observed Flight Rules
Jan-21 @ 04:35 UTC
(16 minutes ago)
MVFR
Wind Visibility
Calm 5 miles
Clouds
  • Broken at 12,000' AGL
Conditions
  • Mist
Temperature Dewpoint
-3°C / 27°F -3°C / 27°F
Humidity Altimeter Pressure
100% 29.94" Hg 1014 hPa